createdAt,value
2019-02-04T00:01:53.796Z,70.17
2019-02-04T00:04:24.504Z,71.18
2019-02-04T00:06:55.024Z,71.46
2019-02-04T00:09:25.429Z,70.88
2019-02-04T00:11:56.513Z,72.12
2019-02-04T00:14:27.120Z,72.80
2019-02-04T00:16:57.529Z,70.64
2019-02-04T00:19:27.879Z,69.36
2019-02-04T00:21:58.516Z,69.55
2019-02-04T00:24:29.440Z,70.06
2019-02-04T00:26:59.974Z,71.49
2019-02-04T00:29:30.708Z,70.40
2019-02-04T00:32:01.216Z,69.85
2019-02-04T00:34:31.677Z,70.32
2019-02-04T00:37:02.396Z,70.61
2019-02-04T00:39:32.923Z,70.30
2019-02-04T00:42:03.362Z,70.08
2019-02-04T00:44:33.975Z,69.27
2019-02-04T00:47:04.626Z,68.35
2019-02-04T00:49:35.155Z,67.79
2019-02-04T00:52:05.964Z,67.61
2019-02-04T00:54:36.744Z,67.09
2019-02-04T00:57:07.439Z,67.73
2019-02-04T00:59:38.169Z,67.84
2019-02-04T01:02:08.898Z,68.45
2019-02-04T01:04:39.639Z,69.49
2019-02-04T01:07:10.377Z,68.72
2019-02-04T01:09:41.002Z,68.62
2019-02-04T01:12:11.809Z,67.57
2019-02-04T01:14:42.379Z,66.89
2019-02-04T01:17:12.982Z,67.30
2019-02-04T01:19:43.532Z,67.52
2019-02-04T01:22:14.056Z,67.14
2019-02-04T01:24:44.589Z,67.17
2019-02-04T01:27:15.092Z,68.31
2019-02-04T01:29:46.028Z,67.80
2019-02-04T01:32:16.935Z,67.38
2019-02-04T01:34:49.016Z,67.53
2019-02-04T01:37:19.911Z,67.19
2019-02-04T01:39:50.666Z,67.34
2019-02-04T01:42:21.785Z,67.55
2019-02-04T01:44:52.296Z,67.06
2019-02-04T01:47:22.622Z,67.02
2019-02-04T01:49:53.092Z,67.06
2019-02-04T01:52:23.476Z,66.88
2019-02-04T01:54:53.899Z,67.86
2019-02-04T01:57:24.543Z,67.75
2019-02-04T01:59:55.164Z,69.09
2019-02-04T02:02:25.681Z,68.33
2019-02-04T02:04:56.328Z,67.95
2019-02-04T02:07:27.158Z,67.73
2019-02-04T02:09:57.894Z,67.68
2019-02-04T02:12:28.434Z,67.68
2019-02-04T02:14:58.856Z,67.78
2019-02-04T02:17:29.388Z,68.02
2019-02-04T02:19:59.804Z,68.07
2019-02-04T02:22:30.312Z,68.07
2019-02-04T02:25:00.755Z,67.88
2019-02-04T02:27:31.385Z,67.75
2019-02-04T02:30:01.928Z,67.86
2019-02-04T02:32:32.875Z,67.77
2019-02-04T02:35:03.684Z,67.67
2019-02-04T02:37:34.094Z,67.75
2019-02-04T02:40:05.694Z,67.88
2019-02-04T02:42:36.403Z,67.96
2019-02-04T02:45:08.328Z,67.08
2019-02-04T02:47:39.087Z,66.66
2019-02-04T02:50:10.386Z,66.23
2019-02-04T02:52:41.001Z,66.56
2019-02-04T02:55:13.504Z,66.85
2019-02-04T02:57:44.263Z,66.67
2019-02-04T03:00:17.534Z,66.58
2019-02-04T03:02:48.316Z,66.42
2019-02-04T03:05:19.553Z,67.22
2019-02-04T03:07:49.985Z,66.85
2019-02-04T03:10:24.337Z,66.31
2019-02-04T03:12:54.862Z,66.85
2019-02-04T03:15:25.494Z,66.65
2019-02-04T03:17:56.099Z,66.78
2019-02-04T03:20:27.016Z,66.73
2019-02-04T03:22:57.534Z,66.80
2019-02-04T03:25:28.090Z,67.66
2019-02-04T03:27:58.817Z,70.63
2019-02-04T03:30:35.142Z,72.08
2019-02-04T03:33:06.120Z,70.87
2019-02-04T03:35:36.790Z,70.30
2019-02-04T03:38:07.384Z,70.21
2019-02-04T03:40:38.104Z,72.68
2019-02-04T03:43:08.534Z,73.24
2019-02-04T03:45:39.054Z,72.77
2019-02-04T03:48:09.750Z,73.50
2019-02-04T03:50:40.357Z,73.14
2019-02-04T03:53:10.790Z,73.09
2019-02-04T03:55:41.282Z,73.53
2019-02-04T03:58:11.935Z,72.83
2019-02-04T04:00:42.535Z,73.23
2019-02-04T04:03:13.512Z,73.59
2019-02-04T04:05:43.904Z,72.93
2019-02-04T04:08:14.512Z,72.31
2019-02-04T04:10:45.264Z,72.05
2019-02-04T04:13:15.924Z,72.33
2019-02-04T04:15:46.733Z,72.07
2019-02-04T04:18:17.288Z,72.12
2019-02-04T04:20:47.802Z,71.51
2019-02-04T04:23:18.213Z,71.25
2019-02-04T04:25:48.751Z,71.31
2019-02-04T04:28:19.591Z,71.15
2019-02-04T04:30:50.020Z,71.03
2019-02-04T04:33:20.681Z,71.03
2019-02-04T04:35:51.288Z,70.94
2019-02-04T04:38:21.827Z,70.71
2019-02-04T04:40:52.558Z,70.58
2019-02-04T04:43:23.195Z,70.84
2019-02-04T04:45:53.704Z,70.56
2019-02-04T04:48:26.540Z,70.51
2019-02-04T04:50:56.270Z,70.03
2019-02-04T04:53:26.826Z,70.56
2019-02-04T04:55:57.360Z,70.17
2019-02-04T04:58:27.864Z,71.06
2019-02-04T05:00:58.410Z,70.72
2019-02-04T05:03:29.146Z,70.66
2019-02-04T05:05:59.981Z,71.77
2019-02-04T05:08:30.949Z,70.96
2019-02-04T05:11:01.671Z,70.43
2019-02-04T05:13:32.216Z,70.68
2019-02-04T05:16:02.800Z,70.83
2019-02-04T05:18:38.075Z,70.48
2019-02-04T05:21:05.702Z,70.13
2019-02-04T05:23:36.220Z,70.72
2019-02-04T05:26:06.788Z,72.50
2019-02-04T05:28:37.317Z,71.28
2019-02-04T05:31:08.024Z,70.76
2019-02-04T05:33:38.915Z,71.60
2019-02-04T05:36:09.739Z,71.93
2019-02-04T05:38:40.329Z,71.64
2019-02-04T05:41:11.198Z,72.36
2019-02-04T05:43:41.934Z,73.21
2019-02-04T05:46:12.735Z,72.10
2019-02-04T05:48:49.349Z,71.62
2019-02-04T05:51:15.766Z,72.02
2019-02-04T05:53:46.481Z,73.37
2019-02-04T05:56:17.294Z,71.64
2019-02-04T05:58:47.826Z,71.22
2019-02-04T06:01:18.359Z,70.97
2019-02-04T06:03:49.003Z,70.54
2019-02-04T06:06:19.624Z,70.31
2019-02-04T06:08:50.147Z,70.45
2019-02-04T06:11:20.828Z,70.32
2019-02-04T06:13:51.328Z,70.47
2019-02-04T06:16:22.247Z,70.26
2019-02-04T06:19:00.424Z,70.06
2019-02-04T06:21:24.962Z,70.10
2019-02-04T06:23:55.597Z,69.92
2019-02-04T06:26:25.800Z,69.90
2019-02-04T06:28:55.828Z,69.64
2019-02-04T06:31:26.565Z,69.52
2019-02-04T06:33:57.235Z,69.52
2019-02-04T06:36:27.527Z,70.46
2019-02-04T06:38:58.257Z,70.06
2019-02-04T06:41:29.111Z,72.46
2019-02-04T06:43:59.487Z,74.06
2019-02-04T06:46:29.632Z,75.89
2019-02-04T06:48:59.844Z,76.93
2019-02-04T06:51:31.769Z,75.97
2019-02-04T06:54:01.791Z,73.94
2019-02-04T06:56:31.835Z,72.88
2019-02-04T06:59:02.411Z,73.02
2019-02-04T07:01:33.095Z,71.46
2019-02-04T07:04:03.612Z,70.68
2019-02-04T07:06:34.154Z,70.19
2019-02-04T07:09:06.851Z,70.03
2019-02-04T07:11:37.354Z,70.32
2019-02-04T07:14:08.100Z,70.47
2019-02-04T07:16:39.052Z,69.86
2019-02-04T07:19:09.697Z,69.59
2019-02-04T07:21:40.095Z,69.81
2019-02-04T07:24:10.650Z,70.08
2019-02-04T07:26:41.137Z,70.30
2019-02-04T07:29:11.680Z,70.80
2019-02-04T07:31:41.867Z,70.99
2019-02-04T07:34:12.356Z,71.08
2019-02-04T07:36:42.674Z,70.30
2019-02-04T07:39:13.153Z,70.01
2019-02-04T07:41:43.157Z,69.86
2019-02-04T07:44:13.387Z,70.51
2019-02-04T07:46:44.264Z,70.25
2019-02-04T07:49:14.284Z,69.85
2019-02-04T07:51:44.539Z,69.12
2019-02-04T07:54:14.548Z,69.19
2019-02-04T07:56:44.685Z,69.25
2019-02-04T07:59:15.099Z,68.99
2019-02-04T08:01:45.304Z,68.81
2019-02-04T08:04:15.299Z,69.26
2019-02-04T08:06:45.850Z,72.69
2019-02-04T08:09:16.202Z,73.67
2019-02-04T08:11:46.396Z,72.84
2019-02-04T08:14:17.027Z,70.77
2019-02-04T08:16:47.524Z,71.39
2019-02-04T08:19:18.063Z,72.61
2019-02-04T08:21:48.799Z,73.37
2019-02-04T08:24:18.786Z,74.23
2019-02-04T08:26:49.641Z,73.73
2019-02-04T08:29:20.378Z,72.18
2019-02-04T08:31:50.924Z,71.91
2019-02-04T08:34:21.843Z,71.76
2019-02-04T08:36:52.155Z,71.39
2019-02-04T08:39:22.393Z,70.27
2019-02-04T08:41:53.132Z,70.95
2019-02-04T08:44:23.965Z,69.75
2019-02-04T08:46:54.678Z,69.55
2019-02-04T08:49:24.716Z,68.82
2019-02-04T08:51:55.380Z,70.13
2019-02-04T08:54:26.474Z,69.17
2019-02-04T08:56:57.278Z,68.72
2019-02-04T08:59:27.650Z,68.21
2019-02-04T09:01:58.174Z,66.90
2019-02-04T09:04:28.813Z,67.21
2019-02-04T09:06:59.517Z,66.89
2019-02-04T09:09:30.347Z,66.55
2019-02-04T09:12:00.784Z,66.17
2019-02-04T09:14:31.319Z,65.96
2019-02-04T09:17:01.847Z,65.96
2019-02-04T09:19:32.356Z,64.97
2019-02-04T09:22:02.897Z,64.64
2019-02-04T09:24:33.546Z,64.49
2019-02-04T09:27:04.254Z,64.94
2019-02-04T09:29:35.019Z,66.90
2019-02-04T09:32:05.670Z,66.63
2019-02-04T09:34:36.591Z,65.79
2019-02-04T09:37:07.644Z,64.72
2019-02-04T09:39:38.136Z,64.31
2019-02-04T09:42:08.861Z,64.06
2019-02-04T09:44:39.505Z,63.77
2019-02-04T09:47:10.424Z,62.98
2019-02-04T09:49:41.188Z,61.60
2019-02-04T09:52:11.400Z,59.57
2019-02-04T09:54:41.420Z,59.65
2019-02-04T09:57:11.550Z,59.41
2019-02-04T09:59:41.802Z,59.66
2019-02-04T10:02:12.417Z,57.81
2019-02-04T10:04:42.556Z,59.67
2019-02-04T10:07:12.703Z,60.39
2019-02-04T10:09:42.929Z,59.63
2019-02-04T10:12:13.222Z,58.78
2019-02-04T10:14:43.240Z,56.94
2019-02-04T10:17:13.562Z,55.28
2019-02-04T10:19:43.883Z,51.90
2019-02-04T10:22:14.141Z,50.58
2019-02-04T10:24:44.267Z,48.22
2019-02-04T10:27:14.479Z,46.42
2019-02-04T10:29:44.682Z,43.82
2019-02-04T10:32:14.794Z,45.14
2019-02-04T10:34:45.459Z,45.70
2019-02-04T10:37:15.897Z,45.92
2019-02-04T10:39:46.067Z,48.24
2019-02-04T10:42:16.230Z,48.39
2019-02-04T10:44:46.833Z,47.85
2019-02-04T10:47:17.595Z,45.32
2019-02-04T10:49:48.123Z,43.80
2019-02-04T10:52:18.790Z,43.86
2019-02-04T10:54:49.399Z,42.58
2019-02-04T10:57:20.211Z,41.76
2019-02-04T10:59:50.829Z,41.72
2019-02-04T11:02:21.415Z,37.88
2019-02-04T11:04:52.023Z,38.52
2019-02-04T11:07:22.877Z,37.40
2019-02-04T11:09:53.621Z,37.90
2019-02-04T11:12:24.316Z,36.79
2019-02-04T11:14:54.839Z,37.09
2019-02-04T11:17:25.282Z,38.26
2019-02-04T11:19:56.232Z,37.70
2019-02-04T11:22:26.756Z,39.13
2019-02-04T11:24:57.146Z,37.53
2019-02-04T11:27:27.308Z,39.09
2019-02-04T11:29:58.176Z,38.78
2019-02-04T11:32:28.888Z,40.12
2019-02-04T11:34:59.045Z,39.67
2019-02-04T11:37:30.656Z,40.69
2019-02-04T11:40:01.599Z,38.59
2019-02-04T11:42:32.287Z,38.61
2019-02-04T11:45:02.681Z,39.52
2019-02-04T11:47:33.259Z,39.50
2019-02-04T11:50:04.527Z,39.01
2019-02-04T11:52:35.226Z,39.69
2019-02-04T11:55:06.400Z,37.28
2019-02-04T11:57:36.908Z,38.84
2019-02-04T12:00:10.426Z,36.33
2019-02-04T12:02:41.347Z,36.45
2019-02-04T12:05:13.326Z,37.17
2019-02-04T12:07:43.922Z,38.12
2019-02-04T12:10:26.770Z,36.97
2019-02-04T12:12:57.375Z,36.73
2019-02-04T12:15:27.892Z,37.07
2019-02-04T12:17:58.037Z,36.27
2019-02-04T12:20:29.082Z,36.03
2019-02-04T12:22:59.695Z,33.59
2019-02-04T12:25:30.324Z,34.20
2019-02-04T12:28:00.861Z,34.67
2019-02-04T12:30:33.796Z,34.13
2019-02-04T12:33:05.340Z,33.27
2019-02-04T12:35:35.573Z,34.69
2019-02-04T12:38:05.896Z,33.54
2019-02-04T12:40:37.172Z,34.41
2019-02-04T12:43:07.978Z,34.97
2019-02-04T12:45:39.875Z,34.64
2019-02-04T12:48:11.012Z,33.84
2019-02-04T12:50:41.641Z,34.71
2019-02-04T12:53:12.575Z,36.79
2019-02-04T12:55:43.240Z,37.33
2019-02-04T12:58:13.863Z,37.37
2019-02-04T13:00:44.471Z,34.73
2019-02-04T13:03:14.901Z,35.37
2019-02-04T13:05:51.978Z,34.53
2019-02-04T13:08:22.806Z,35.12
2019-02-04T13:10:53.580Z,35.58
2019-02-04T13:13:25.166Z,35.16
2019-02-04T13:15:55.720Z,35.77
2019-02-04T13:18:26.016Z,35.01
2019-02-04T13:20:56.402Z,35.47
2019-02-04T13:23:27.155Z,36.50
2019-02-04T13:25:57.457Z,35.41
2019-02-04T13:28:28.091Z,35.26
2019-02-04T13:30:58.612Z,37.27
2019-02-04T13:33:29.228Z,37.05
2019-02-04T13:35:59.660Z,36.97
2019-02-04T13:38:30.781Z,37.65
2019-02-04T13:41:08.146Z,39.54
2019-02-04T13:43:33.391Z,40.05
2019-02-04T13:46:05.886Z,40.66
2019-02-04T13:48:35.569Z,41.49
2019-02-04T13:51:06.576Z,41.52
2019-02-04T13:53:37.136Z,42.18
2019-02-04T13:56:07.784Z,41.57
2019-02-04T13:58:38.400Z,41.33
2019-02-04T14:01:08.918Z,40.33
2019-02-04T14:03:39.259Z,39.33
2019-02-04T14:06:11.188Z,38.75
2019-02-04T14:08:41.375Z,39.80
2019-02-04T14:11:11.523Z,39.64
2019-02-04T14:13:41.544Z,39.46
2019-02-04T14:16:11.952Z,39.50
2019-02-04T14:18:42.626Z,39.23
2019-02-04T14:21:13.363Z,39.75
2019-02-04T14:23:43.748Z,39.52
2019-02-04T14:26:15.803Z,39.57
2019-02-04T14:28:45.974Z,40.97
2019-02-04T14:31:15.990Z,41.61
2019-02-04T14:33:46.053Z,41.85
2019-02-04T14:36:16.554Z,42.63
2019-02-04T14:38:46.828Z,42.48
2019-02-04T14:41:16.841Z,40.96
2019-02-04T14:43:59.777Z,40.28
2019-02-04T14:46:59.532Z,40.74
2019-02-04T14:50:22.323Z,41.65
2019-02-04T14:53:38.239Z,42.73
2019-02-04T14:56:27.525Z,43.83
2019-02-04T14:59:36.129Z,44.33
2019-02-04T15:02:36.910Z,43.51
2019-02-04T15:05:23.136Z,44.02
2019-02-04T15:08:35.426Z,42.96
2019-02-04T15:11:34.467Z,44.44
2019-02-04T15:14:51.719Z,43.99
2019-02-04T15:17:58.821Z,44.34
2019-02-04T15:20:52.990Z,41.93
2019-02-04T15:23:55.242Z,42.02
2019-02-04T15:26:52.939Z,41.75
2019-02-04T15:29:46.200Z,41.63
2019-02-04T15:32:57.667Z,44.61
2019-02-04T15:36:23.666Z,45.72
2019-02-04T15:39:01.904Z,46.70
2019-02-04T15:42:11.653Z,46.83
2019-02-04T15:45:40.350Z,47.36
2019-02-04T15:48:22.956Z,47.42
2019-02-04T15:51:31.242Z,47.18
2019-02-04T15:54:04.135Z,47.32
2019-02-04T15:56:34.293Z,47.95
2019-02-04T15:59:04.409Z,47.50
2019-02-04T16:01:34.468Z,47.57
2019-02-04T16:04:26.803Z,48.42
2019-02-04T16:06:56.989Z,48.62
2019-02-04T16:09:27.248Z,49.25
2019-02-04T16:11:57.412Z,50.63
2019-02-04T16:14:27.602Z,49.93
2019-02-04T16:16:58.169Z,50.29
2019-02-04T16:19:28.386Z,50.30
2019-02-04T16:21:58.448Z,50.88
2019-02-04T16:24:28.678Z,51.52
2019-02-04T16:26:58.846Z,51.89
2019-02-04T16:29:29.422Z,51.24
2019-02-04T16:31:59.570Z,51.93
2019-02-04T16:34:29.482Z,55.08
2019-02-04T16:36:59.540Z,50.08
2019-02-04T16:39:29.934Z,51.29
2019-02-04T16:42:00.200Z,49.97
2019-02-04T16:44:30.404Z,50.52
2019-02-04T16:47:00.668Z,50.82
2019-02-04T16:49:30.681Z,50.65
2019-02-04T16:52:00.745Z,50.12
2019-02-04T16:54:30.934Z,50.22
2019-02-04T16:57:01.380Z,50.07
2019-02-04T16:59:31.488Z,50.04
2019-02-04T17:02:01.601Z,50.47
2019-02-04T17:04:31.837Z,51.04
2019-02-04T17:07:02.010Z,51.50
2019-02-04T17:09:32.017Z,51.33
2019-02-04T17:12:02.479Z,51.40
2019-02-04T17:14:32.677Z,51.99
2019-02-04T17:17:02.831Z,52.15
2019-02-04T17:19:32.959Z,52.62
2019-02-04T17:22:03.153Z,52.66
2019-02-04T17:24:33.208Z,54.91
2019-02-04T17:27:03.258Z,61.40
2019-02-04T17:29:33.472Z,58.26
2019-02-04T17:32:03.666Z,57.00
2019-02-04T17:34:33.598Z,51.23
2019-02-04T17:37:03.781Z,51.15
2019-02-04T17:39:34.494Z,51.98
2019-02-04T17:42:05.046Z,52.24
2019-02-04T17:44:34.941Z,52.33
2019-02-04T17:47:05.616Z,52.25
2019-02-04T17:49:36.161Z,52.92
2019-02-04T17:52:06.701Z,53.17
2019-02-04T17:54:36.877Z,53.16
2019-02-04T17:57:07.226Z,53.34
2019-02-04T17:59:37.471Z,52.99
2019-02-04T18:02:07.684Z,51.66
2019-02-04T18:04:37.734Z,51.46
2019-02-04T18:07:08.101Z,51.29
2019-02-04T18:09:38.165Z,51.34
2019-02-04T18:12:08.344Z,51.44
2019-02-04T18:14:38.558Z,51.71
2019-02-04T18:17:09.003Z,52.83
2019-02-04T18:19:39.205Z,52.61
2019-02-04T18:22:09.365Z,52.45
2019-02-04T18:24:39.671Z,52.85
2019-02-04T18:27:10.312Z,52.86
2019-02-04T18:29:40.230Z,53.14
2019-02-04T18:32:10.893Z,53.85
2019-02-04T18:34:41.374Z,55.58
2019-02-04T18:37:12.514Z,56.99
2019-02-04T18:39:42.763Z,58.12
2019-02-04T18:42:13.026Z,56.51
2019-02-04T18:44:43.569Z,55.55
2019-02-04T18:47:13.746Z,55.84
2019-02-04T18:49:43.940Z,55.83
2019-02-04T18:52:14.121Z,55.90
2019-02-04T18:54:44.484Z,55.62
2019-02-04T18:57:14.637Z,55.50
2019-02-04T18:59:44.857Z,55.39
2019-02-04T19:02:15.087Z,55.45
2019-02-04T19:04:45.190Z,55.84
2019-02-04T19:07:15.356Z,55.81
2019-02-04T19:09:45.561Z,56.78
2019-02-04T19:12:16.291Z,58.13
2019-02-04T19:14:46.200Z,57.34
2019-02-04T19:17:16.367Z,57.31
2019-02-04T19:19:46.587Z,56.84
2019-02-04T19:22:17.320Z,57.61
2019-02-04T19:24:47.948Z,57.59
2019-02-04T19:27:18.375Z,57.54
2019-02-04T19:29:48.912Z,56.84
2019-02-04T19:32:18.981Z,57.75
2019-02-04T19:34:49.192Z,59.25
2019-02-04T19:37:19.230Z,59.14
2019-02-04T19:39:49.899Z,59.42
2019-02-04T19:42:19.996Z,58.05
2019-02-04T19:44:50.246Z,57.31
2019-02-04T19:47:20.428Z,57.67
2019-02-04T19:49:50.462Z,57.54
2019-02-04T19:52:20.639Z,57.63
2019-02-04T19:54:50.841Z,57.18
2019-02-04T19:57:20.990Z,56.70
2019-02-04T19:59:51.006Z,56.47
2019-02-04T20:02:21.180Z,56.83
2019-02-04T20:04:51.381Z,56.96
2019-02-04T20:07:22.032Z,56.73
2019-02-04T20:09:52.159Z,57.00
2019-02-04T20:12:22.364Z,57.76
2019-02-04T20:14:52.591Z,57.17
2019-02-04T20:17:22.851Z,57.76
2019-02-04T20:19:52.767Z,57.32
2019-02-04T20:22:23.202Z,58.38
2019-02-04T20:24:53.400Z,57.67
2019-02-04T20:27:23.661Z,57.80
2019-02-04T20:29:53.785Z,57.61
2019-02-04T20:32:23.858Z,57.63
2019-02-04T20:34:54.073Z,58.51
2019-02-04T20:37:24.246Z,58.17
2019-02-04T20:39:54.167Z,57.74
2019-02-04T20:42:24.811Z,58.87
2019-02-04T20:44:55.005Z,60.61
2019-02-04T20:47:25.167Z,59.10
2019-02-04T20:49:55.571Z,59.27
2019-02-04T20:52:25.635Z,60.91
2019-02-04T20:54:55.816Z,61.56
2019-02-04T20:57:25.990Z,60.26
2019-02-04T20:59:56.209Z,60.95
2019-02-04T21:02:26.531Z,60.72
2019-02-04T21:04:56.814Z,59.19
2019-02-04T21:07:26.882Z,58.83
2019-02-04T21:09:57.097Z,59.31
2019-02-04T21:12:27.276Z,58.79
2019-02-04T21:14:57.294Z,58.26
2019-02-04T21:17:27.372Z,57.90
2019-02-04T21:19:57.574Z,59.38
2019-02-04T21:22:27.730Z,61.33
2019-02-04T21:24:57.813Z,60.43
2019-02-04T21:27:27.978Z,59.96
2019-02-04T21:29:58.243Z,59.82
2019-02-04T21:32:28.487Z,60.39
2019-02-04T21:34:58.698Z,59.65
2019-02-04T21:37:28.746Z,59.64
2019-02-04T21:39:58.773Z,59.37
2019-02-04T21:42:28.970Z,60.23
2019-02-04T21:44:59.200Z,60.37
2019-02-04T21:47:29.377Z,60.00
2019-02-04T21:50:00.082Z,59.41
2019-02-04T21:52:30.623Z,58.97
2019-02-04T21:55:08.060Z,59.72
2019-02-04T21:57:32.663Z,59.84
2019-02-04T22:00:04.997Z,60.28
2019-02-04T22:02:34.920Z,59.68
2019-02-04T22:05:05.571Z,59.47
2019-02-04T22:07:35.507Z,59.79
2019-02-04T22:10:08.331Z,61.82
2019-02-04T22:12:38.603Z,62.24
2019-02-04T22:15:09.389Z,62.06
2019-02-04T22:17:39.504Z,61.17
2019-02-04T22:20:11.182Z,60.79
2019-02-04T22:22:41.295Z,60.54
2019-02-04T22:25:19.510Z,63.11
2019-02-04T22:27:43.480Z,61.34
2019-02-04T22:30:16.764Z,60.98
2019-02-04T22:32:46.771Z,60.67
2019-02-04T22:35:16.885Z,62.92
2019-02-04T22:37:47.406Z,62.60
2019-02-04T22:40:29.917Z,62.73
2019-02-04T22:43:00.610Z,62.44
2019-02-04T22:45:30.992Z,62.25
2019-02-04T22:48:01.007Z,65.19
2019-02-04T22:50:32.352Z,66.87
2019-02-04T22:53:02.850Z,66.59
2019-02-04T22:55:32.990Z,64.26
2019-02-04T22:58:03.151Z,64.50
2019-02-04T23:00:54.349Z,64.67
2019-02-04T23:03:24.889Z,62.81
2019-02-04T23:05:55.399Z,63.16
2019-02-04T23:08:25.543Z,62.97
2019-02-04T23:10:55.684Z,62.35
2019-02-04T23:13:25.821Z,62.53
2019-02-04T23:15:56.537Z,62.42
2019-02-04T23:18:26.660Z,63.04
2019-02-04T23:20:56.754Z,63.99
2019-02-04T23:23:26.785Z,65.72
2019-02-04T23:25:56.895Z,65.28
2019-02-04T23:28:27.533Z,64.62
2019-02-04T23:30:57.772Z,64.15
2019-02-04T23:33:34.159Z,66.50
2019-02-04T23:35:59.775Z,67.38
2019-02-04T23:38:29.955Z,65.75
2019-02-04T23:41:00.170Z,65.67
2019-02-04T23:43:30.407Z,64.43
2019-02-04T23:46:00.495Z,64.89
2019-02-04T23:48:30.544Z,64.03
2019-02-04T23:51:00.754Z,63.44
2019-02-04T23:53:30.915Z,64.43
2019-02-04T23:56:01.204Z,64.04
2019-02-04T23:58:31.298Z,64.14
